sensor_id;sensor_type;location;lat;lon;timestamp;P1;durP1;ratioP1;P2;durP2;ratioP2
5904;SDS011;2978;42.012;24.880;2023-02-19T00:01:40;7.50;;;2.20;;
5904;SDS011;2978;42.012;24.880;2023-02-19T00:04:10;2.93;;;2.43;;
5904;SDS011;2978;42.012;24.880;2023-02-19T00:06:38;2.33;;;2.13;;
5904;SDS011;2978;42.012;24.880;2023-02-19T00:09:04;5.90;;;2.50;;
5904;SDS011;2978;42.012;24.880;2023-02-19T00:11:31;5.30;;;2.10;;
5904;SDS011;2978;42.012;24.880;2023-02-19T00:13:59;4.10;;;2.50;;
5904;SDS011;2978;42.012;24.880;2023-02-19T00:16:26;4.43;;;2.70;;
5904;SDS011;2978;42.012;24.880;2023-02-19T00:18:53;4.63;;;3.50;;
5904;SDS011;2978;42.012;24.880;2023-02-19T00:21:20;7.73;;;4.17;;
5904;SDS011;2978;42.012;24.880;2023-02-19T00:23:49;5.37;;;3.60;;
5904;SDS011;2978;42.012;24.880;2023-02-19T00:26:16;8.20;;;4.57;;
5904;SDS011;2978;42.012;24.880;2023-02-19T00:28:43;9.97;;;2.40;;
5904;SDS011;2978;42.012;24.880;2023-02-19T00:31:15;6.47;;;4.03;;
5904;SDS011;2978;42.012;24.880;2023-02-19T00:33:48;6.30;;;3.27;;
5904;SDS011;2978;42.012;24.880;2023-02-19T00:36:15;4.90;;;2.63;;
5904;SDS011;2978;42.012;24.880;2023-02-19T00:38:42;2.33;;;2.10;;
5904;SDS011;2978;42.012;24.880;2023-02-19T00:41:08;4.83;;;2.87;;
5904;SDS011;2978;42.012;24.880;2023-02-19T00:43:47;5.40;;;2.60;;
5904;SDS011;2978;42.012;24.880;2023-02-19T00:46:13;2.50;;;2.17;;
5904;SDS011;2978;42.012;24.880;2023-02-19T00:48:58;3.87;;;2.20;;
5904;SDS011;2978;42.012;24.880;2023-02-19T00:51:25;6.50;;;2.37;;
5904;SDS011;2978;42.012;24.880;2023-02-19T00:53:53;4.63;;;2.50;;
5904;SDS011;2978;42.012;24.880;2023-02-19T00:56:19;2.80;;;2.00;;
5904;SDS011;2978;42.012;24.880;2023-02-19T00:58:44;4.83;;;2.20;;
5904;SDS011;2978;42.012;24.880;2023-02-19T01:01:10;2.77;;;1.63;;
5904;SDS011;2978;42.012;24.880;2023-02-19T01:03:37;4.80;;;2.17;;
5904;SDS011;2978;42.012;24.880;2023-02-19T01:06:03;2.27;;;2.07;;
5904;SDS011;2978;42.012;24.880;2023-02-19T01:08:29;3.27;;;2.30;;
5904;SDS011;2978;42.012;24.880;2023-02-19T01:10:56;4.50;;;2.17;;
5904;SDS011;2978;42.012;24.880;2023-02-19T01:13:22;2.57;;;2.07;;
5904;SDS011;2978;42.012;24.880;2023-02-19T01:15:48;3.43;;;2.00;;
5904;SDS011;2978;42.012;24.880;2023-02-19T01:18:13;2.23;;;1.90;;
5904;SDS011;2978;42.012;24.880;2023-02-19T01:20:39;2.83;;;1.77;;
5904;SDS011;2978;42.012;24.880;2023-02-19T01:23:06;3.60;;;1.50;;
5904;SDS011;2978;42.012;24.880;2023-02-19T01:25:31;3.50;;;2.20;;
5904;SDS011;2978;42.012;24.880;2023-02-19T01:27:57;3.40;;;2.03;;
5904;SDS011;2978;42.012;24.880;2023-02-19T01:30:22;2.13;;;1.80;;
5904;SDS011;2978;42.012;24.880;2023-02-19T01:32:48;2.63;;;2.00;;
5904;SDS011;2978;42.012;24.880;2023-02-19T01:35:13;2.87;;;2.10;;
5904;SDS011;2978;42.012;24.880;2023-02-19T01:37:39;2.63;;;1.90;;
5904;SDS011;2978;42.012;24.880;2023-02-19T01:40:04;2.07;;;1.87;;
5904;SDS011;2978;42.012;24.880;2023-02-19T01:42:30;2.37;;;1.90;;
5904;SDS011;2978;42.012;24.880;2023-02-19T01:45:12;7.93;;;2.10;;
5904;SDS011;2978;42.012;24.880;2023-02-19T01:48:06;1.70;;;1.60;;
5904;SDS011;2978;42.012;24.880;2023-02-19T01:50:49;2.93;;;1.80;;
5904;SDS011;2978;42.012;24.880;2023-02-19T01:53:19;7.67;;;1.73;;
5904;SDS011;2978;42.012;24.880;2023-02-19T01:55:49;2.10;;;1.57;;
5904;SDS011;2978;42.012;24.880;2023-02-19T01:58:18;5.30;;;2.63;;
5904;SDS011;2978;42.012;24.880;2023-02-19T02:00:44;4.50;;;2.50;;
5904;SDS011;2978;42.012;24.880;2023-02-19T02:03:09;4.40;;;2.10;;
5904;SDS011;2978;42.012;24.880;2023-02-19T02:05:39;3.17;;;2.57;;
5904;SDS011;2978;42.012;24.880;2023-02-19T02:08:13;4.77;;;2.63;;
5904;SDS011;2978;42.012;24.880;2023-02-19T02:11:00;5.03;;;2.43;;
5904;SDS011;2978;42.012;24.880;2023-02-19T02:13:26;4.87;;;2.40;;
5904;SDS011;2978;42.012;24.880;2023-02-19T02:18:27;4.47;;;2.73;;
5904;SDS011;2978;42.012;24.880;2023-02-19T02:21:05;2.20;;;1.73;;
5904;SDS011;2978;42.012;24.880;2023-02-19T02:32:20;5.10;;;1.90;;
5904;SDS011;2978;42.012;24.880;2023-02-19T02:34:52;2.37;;;1.90;;
5904;SDS011;2978;42.012;24.880;2023-02-19T02:37:23;3.70;;;1.97;;
5904;SDS011;2978;42.012;24.880;2023-02-19T02:39:52;4.20;;;1.90;;
5904;SDS011;2978;42.012;24.880;2023-02-19T02:42:18;3.10;;;2.00;;
5904;SDS011;2978;42.012;24.880;2023-02-19T02:44:53;12.43;;;2.63;;
5904;SDS011;2978;42.012;24.880;2023-02-19T02:47:51;5.97;;;2.27;;
5904;SDS011;2978;42.012;24.880;2023-02-19T02:50:21;3.60;;;2.27;;
5904;SDS011;2978;42.012;24.880;2023-02-19T02:52:58;3.67;;;2.03;;
5904;SDS011;2978;42.012;24.880;2023-02-19T02:55:48;4.90;;;2.07;;
5904;SDS011;2978;42.012;24.880;2023-02-19T02:58:17;4.80;;;2.20;;
5904;SDS011;2978;42.012;24.880;2023-02-19T03:00:44;4.60;;;2.43;;
5904;SDS011;2978;42.012;24.880;2023-02-19T03:03:35;4.40;;;2.40;;
5904;SDS011;2978;42.012;24.880;2023-02-19T03:06:04;2.63;;;2.07;;
5904;SDS011;2978;42.012;24.880;2023-02-19T03:11:25;5.57;;;1.80;;
5904;SDS011;2978;42.012;24.880;2023-02-19T03:14:20;4.20;;;2.17;;
5904;SDS011;2978;42.012;24.880;2023-02-19T03:17:10;3.53;;;1.63;;
5904;SDS011;2978;42.012;24.880;2023-02-19T03:20:00;2.97;;;2.10;;
5904;SDS011;2978;42.012;24.880;2023-02-19T03:22:30;11.53;;;2.00;;
5904;SDS011;2978;42.012;24.880;2023-02-19T03:25:03;1.70;;;1.50;;
5904;SDS011;2978;42.012;24.880;2023-02-19T03:27:51;11.70;;;1.80;;
5904;SDS011;2978;42.012;24.880;2023-02-19T03:30:21;4.50;;;1.47;;
5904;SDS011;2978;42.012;24.880;2023-02-19T03:35:24;2.77;;;1.73;;
5904;SDS011;2978;42.012;24.880;2023-02-19T03:38:05;4.07;;;2.10;;
5904;SDS011;2978;42.012;24.880;2023-02-19T03:40:43;3.67;;;2.10;;
5904;SDS011;2978;42.012;24.880;2023-02-19T03:43:17;1.50;;;1.30;;
5904;SDS011;2978;42.012;24.880;2023-02-19T03:49:17;4.03;;;2.37;;
5904;SDS011;2978;42.012;24.880;2023-02-19T03:51:52;3.70;;;2.10;;
5904;SDS011;2978;42.012;24.880;2023-02-19T03:56:55;4.43;;;2.00;;
5904;SDS011;2978;42.012;24.880;2023-02-19T03:59:39;3.00;;;2.13;;
5904;SDS011;2978;42.012;24.880;2023-02-19T04:04:56;2.60;;;1.43;;
5904;SDS011;2978;42.012;24.880;2023-02-19T04:07:27;3.87;;;2.30;;
5904;SDS011;2978;42.012;24.880;2023-02-19T04:09:57;2.33;;;1.87;;
5904;SDS011;2978;42.012;24.880;2023-02-19T04:12:23;2.17;;;1.67;;
5904;SDS011;2978;42.012;24.880;2023-02-19T04:14:52;2.10;;;1.70;;
5904;SDS011;2978;42.012;24.880;2023-02-19T04:17:28;4.60;;;2.33;;
5904;SDS011;2978;42.012;24.880;2023-02-19T04:19:58;5.33;;;2.03;;
5904;SDS011;2978;42.012;24.880;2023-02-19T04:22:28;3.70;;;1.73;;
5904;SDS011;2978;42.012;24.880;2023-02-19T04:24:54;2.87;;;1.90;;
5904;SDS011;2978;42.012;24.880;2023-02-19T04:27:20;4.33;;;1.53;;
5904;SDS011;2978;42.012;24.880;2023-02-19T04:29:46;2.70;;;1.77;;
5904;SDS011;2978;42.012;24.880;2023-02-19T04:32:12;17.17;;;2.60;;
5904;SDS011;2978;42.012;24.880;2023-02-19T04:34:38;9.00;;;2.13;;
5904;SDS011;2978;42.012;24.880;2023-02-19T04:37:04;1.63;;;1.40;;
5904;SDS011;2978;42.012;24.880;2023-02-19T04:39:29;1.43;;;1.27;;
5904;SDS011;2978;42.012;24.880;2023-02-19T04:41:55;5.03;;;1.63;;
5904;SDS011;2978;42.012;24.880;2023-02-19T04:44:21;3.00;;;1.33;;
5904;SDS011;2978;42.012;24.880;2023-02-19T04:46:46;3.73;;;1.77;;
5904;SDS011;2978;42.012;24.880;2023-02-19T04:49:12;2.33;;;1.43;;
5904;SDS011;2978;42.012;24.880;2023-02-19T04:51:37;2.90;;;1.87;;
5904;SDS011;2978;42.012;24.880;2023-02-19T04:54:03;1.80;;;1.70;;
5904;SDS011;2978;42.012;24.880;2023-02-19T04:56:29;2.90;;;1.47;;
5904;SDS011;2978;42.012;24.880;2023-02-19T04:58:54;1.60;;;1.50;;
5904;SDS011;2978;42.012;24.880;2023-02-19T05:01:20;1.60;;;1.50;;
5904;SDS011;2978;42.012;24.880;2023-02-19T05:03:45;1.43;;;1.30;;
5904;SDS011;2978;42.012;24.880;2023-02-19T05:06:11;5.37;;;1.70;;
5904;SDS011;2978;42.012;24.880;2023-02-19T05:08:37;1.50;;;1.40;;
5904;SDS011;2978;42.012;24.880;2023-02-19T05:11:03;1.60;;;1.50;;
5904;SDS011;2978;42.012;24.880;2023-02-19T05:13:31;1.60;;;1.50;;
5904;SDS011;2978;42.012;24.880;2023-02-19T05:15:57;2.00;;;1.80;;
5904;SDS011;2978;42.012;24.880;2023-02-19T05:18:28;3.07;;;1.93;;
5904;SDS011;2978;42.012;24.880;2023-02-19T05:20:55;1.87;;;1.43;;
5904;SDS011;2978;42.012;24.880;2023-02-19T05:23:22;2.10;;;1.67;;
5904;SDS011;2978;42.012;24.880;2023-02-19T05:25:48;6.23;;;2.97;;
5904;SDS011;2978;42.012;24.880;2023-02-19T05:28:13;2.53;;;2.10;;
5904;SDS011;2978;42.012;24.880;2023-02-19T05:31:03;3.67;;;1.90;;
5904;SDS011;2978;42.012;24.880;2023-02-19T05:33:30;3.40;;;1.60;;
5904;SDS011;2978;42.012;24.880;2023-02-19T05:35:56;4.30;;;2.40;;
5904;SDS011;2978;42.012;24.880;2023-02-19T05:38:22;2.47;;;2.20;;
5904;SDS011;2978;42.012;24.880;2023-02-19T05:40:48;3.20;;;2.10;;
5904;SDS011;2978;42.012;24.880;2023-02-19T05:43:14;2.63;;;1.80;;
5904;SDS011;2978;42.012;24.880;2023-02-19T05:45:40;3.53;;;2.03;;
5904;SDS011;2978;42.012;24.880;2023-02-19T05:48:06;3.13;;;2.20;;
5904;SDS011;2978;42.012;24.880;2023-02-19T05:50:32;3.17;;;1.90;;
5904;SDS011;2978;42.012;24.880;2023-02-19T05:52:59;10.90;;;2.57;;
5904;SDS011;2978;42.012;24.880;2023-02-19T05:55:26;3.23;;;2.17;;
5904;SDS011;2978;42.012;24.880;2023-02-19T05:57:52;2.63;;;2.40;;
5904;SDS011;2978;42.012;24.880;2023-02-19T06:00:18;2.80;;;1.90;;
5904;SDS011;2978;42.012;24.880;2023-02-19T06:02:45;2.80;;;1.90;;
5904;SDS011;2978;42.012;24.880;2023-02-19T06:05:11;3.77;;;2.47;;
5904;SDS011;2978;42.012;24.880;2023-02-19T06:07:37;2.77;;;2.07;;
5904;SDS011;2978;42.012;24.880;2023-02-19T06:10:07;10.43;;;3.00;;
5904;SDS011;2978;42.012;24.880;2023-02-19T06:12:34;6.13;;;3.60;;
5904;SDS011;2978;42.012;24.880;2023-02-19T06:15:00;4.50;;;2.00;;
5904;SDS011;2978;42.012;24.880;2023-02-19T06:17:25;3.40;;;2.20;;
5904;SDS011;2978;42.012;24.880;2023-02-19T06:19:50;8.50;;;2.40;;
5904;SDS011;2978;42.012;24.880;2023-02-19T06:22:16;4.67;;;2.20;;
5904;SDS011;2978;42.012;24.880;2023-02-19T06:24:41;3.60;;;2.03;;
5904;SDS011;2978;42.012;24.880;2023-02-19T06:27:07;4.37;;;2.40;;
5904;SDS011;2978;42.012;24.880;2023-02-19T06:29:33;4.20;;;2.67;;
5904;SDS011;2978;42.012;24.880;2023-02-19T06:32:02;2.40;;;2.03;;
5904;SDS011;2978;42.012;24.880;2023-02-19T06:34:28;2.90;;;2.40;;
5904;SDS011;2978;42.012;24.880;2023-02-19T06:36:54;5.73;;;3.00;;
5904;SDS011;2978;42.012;24.880;2023-02-19T06:39:19;6.07;;;3.00;;
5904;SDS011;2978;42.012;24.880;2023-02-19T06:41:45;5.77;;;2.50;;
5904;SDS011;2978;42.012;24.880;2023-02-19T06:44:10;2.60;;;1.93;;
5904;SDS011;2978;42.012;24.880;2023-02-19T06:46:35;4.57;;;3.00;;
5904;SDS011;2978;42.012;24.880;2023-02-19T06:49:02;4.70;;;3.70;;
5904;SDS011;2978;42.012;24.880;2023-02-19T06:51:28;8.73;;;3.23;;
5904;SDS011;2978;42.012;24.880;2023-02-19T06:53:56;3.20;;;2.33;;
5904;SDS011;2978;42.012;24.880;2023-02-19T06:58:53;3.13;;;2.37;;
5904;SDS011;2978;42.012;24.880;2023-02-19T07:01:20;4.53;;;2.40;;
5904;SDS011;2978;42.012;24.880;2023-02-19T07:03:47;2.80;;;2.50;;
5904;SDS011;2978;42.012;24.880;2023-02-19T07:06:12;2.93;;;2.10;;
5904;SDS011;2978;42.012;24.880;2023-02-19T07:08:37;3.20;;;2.50;;
5904;SDS011;2978;42.012;24.880;2023-02-19T07:11:03;6.30;;;2.93;;
5904;SDS011;2978;42.012;24.880;2023-02-19T07:13:29;4.53;;;2.53;;
5904;SDS011;2978;42.012;24.880;2023-02-19T07:15:58;3.00;;;2.27;;
5904;SDS011;2978;42.012;24.880;2023-02-19T07:18:25;6.07;;;3.23;;
5904;SDS011;2978;42.012;24.880;2023-02-19T07:20:50;3.97;;;2.60;;
5904;SDS011;2978;42.012;24.880;2023-02-19T07:23:16;5.43;;;3.13;;
5904;SDS011;2978;42.012;24.880;2023-02-19T07:25:41;2.53;;;2.33;;
5904;SDS011;2978;42.012;24.880;2023-02-19T07:28:07;4.60;;;2.90;;
5904;SDS011;2978;42.012;24.880;2023-02-19T07:30:32;4.47;;;2.80;;
5904;SDS011;2978;42.012;24.880;2023-02-19T07:32:57;3.90;;;2.80;;
5904;SDS011;2978;42.012;24.880;2023-02-19T07:35:23;6.10;;;2.80;;
5904;SDS011;2978;42.012;24.880;2023-02-19T07:37:48;5.93;;;3.00;;
5904;SDS011;2978;42.012;24.880;2023-02-19T07:40:14;4.30;;;2.90;;
5904;SDS011;2978;42.012;24.880;2023-02-19T07:42:39;4.43;;;3.40;;
5904;SDS011;2978;42.012;24.880;2023-02-19T07:45:05;5.10;;;3.17;;
5904;SDS011;2978;42.012;24.880;2023-02-19T07:47:31;5.67;;;2.87;;
5904;SDS011;2978;42.012;24.880;2023-02-19T07:49:56;5.67;;;2.43;;
5904;SDS011;2978;42.012;24.880;2023-02-19T07:52:21;4.30;;;3.07;;
5904;SDS011;2978;42.012;24.880;2023-02-19T07:54:47;26.47;;;4.60;;
5904;SDS011;2978;42.012;24.880;2023-02-19T07:57:12;6.70;;;2.97;;
5904;SDS011;2978;42.012;24.880;2023-02-19T07:59:38;7.47;;;3.70;;
5904;SDS011;2978;42.012;24.880;2023-02-19T08:02:08;12.87;;;3.30;;
5904;SDS011;2978;42.012;24.880;2023-02-19T08:05:01;13.43;;;4.47;;
5904;SDS011;2978;42.012;24.880;2023-02-19T08:07:30;8.33;;;4.37;;
5904;SDS011;2978;42.012;24.880;2023-02-19T08:09:59;6.83;;;3.27;;
5904;SDS011;2978;42.012;24.880;2023-02-19T08:12:45;5.27;;;3.43;;
5904;SDS011;2978;42.012;24.880;2023-02-19T08:15:37;7.70;;;3.73;;
5904;SDS011;2978;42.012;24.880;2023-02-19T08:18:02;5.00;;;3.60;;
5904;SDS011;2978;42.012;24.880;2023-02-19T08:20:28;4.00;;;3.00;;
5904;SDS011;2978;42.012;24.880;2023-02-19T08:22:53;10.13;;;3.80;;
5904;SDS011;2978;42.012;24.880;2023-02-19T08:25:18;5.73;;;3.50;;
5904;SDS011;2978;42.012;24.880;2023-02-19T08:27:44;7.07;;;3.63;;
5904;SDS011;2978;42.012;24.880;2023-02-19T08:30:10;5.00;;;3.83;;
5904;SDS011;2978;42.012;24.880;2023-02-19T08:32:35;4.40;;;3.00;;
5904;SDS011;2978;42.012;24.880;2023-02-19T08:35:01;4.80;;;3.13;;
5904;SDS011;2978;42.012;24.880;2023-02-19T08:37:26;10.00;;;4.30;;
5904;SDS011;2978;42.012;24.880;2023-02-19T08:39:51;7.53;;;3.90;;
5904;SDS011;2978;42.012;24.880;2023-02-19T08:42:17;9.93;;;3.80;;
5904;SDS011;2978;42.012;24.880;2023-02-19T08:44:42;5.30;;;3.57;;
5904;SDS011;2978;42.012;24.880;2023-02-19T08:47:07;9.87;;;4.13;;
5904;SDS011;2978;42.012;24.880;2023-02-19T08:49:33;4.87;;;3.73;;
5904;SDS011;2978;42.012;24.880;2023-02-19T08:51:58;5.97;;;3.60;;
5904;SDS011;2978;42.012;24.880;2023-02-19T08:54:24;5.57;;;3.10;;
5904;SDS011;2978;42.012;24.880;2023-02-19T08:56:49;8.53;;;3.50;;
5904;SDS011;2978;42.012;24.880;2023-02-19T08:59:14;15.37;;;3.77;;
5904;SDS011;2978;42.012;24.880;2023-02-19T09:01:41;4.43;;;3.43;;
5904;SDS011;2978;42.012;24.880;2023-02-19T09:04:07;13.40;;;3.20;;
5904;SDS011;2978;42.012;24.880;2023-02-19T09:06:35;8.03;;;4.00;;
5904;SDS011;2978;42.012;24.880;2023-02-19T09:09:01;5.40;;;3.30;;
5904;SDS011;2978;42.012;24.880;2023-02-19T09:11:26;4.70;;;2.93;;
5904;SDS011;2978;42.012;24.880;2023-02-19T09:13:54;5.73;;;2.93;;
5904;SDS011;2978;42.012;24.880;2023-02-19T09:16:19;10.30;;;3.50;;
5904;SDS011;2978;42.012;24.880;2023-02-19T09:18:45;4.97;;;3.13;;
5904;SDS011;2978;42.012;24.880;2023-02-19T09:21:10;10.13;;;3.67;;
5904;SDS011;2978;42.012;24.880;2023-02-19T09:23:36;4.47;;;3.17;;
5904;SDS011;2978;42.012;24.880;2023-02-19T09:26:02;6.20;;;3.33;;
5904;SDS011;2978;42.012;24.880;2023-02-19T09:28:31;4.77;;;2.90;;
5904;SDS011;2978;42.012;24.880;2023-02-19T09:31:02;15.40;;;3.90;;
5904;SDS011;2978;42.012;24.880;2023-02-19T09:33:30;8.70;;;3.63;;
5904;SDS011;2978;42.012;24.880;2023-02-19T09:35:59;5.30;;;3.17;;
5904;SDS011;2978;42.012;24.880;2023-02-19T09:38:25;5.37;;;3.10;;
5904;SDS011;2978;42.012;24.880;2023-02-19T09:40:51;6.80;;;3.90;;
5904;SDS011;2978;42.012;24.880;2023-02-19T09:43:18;11.53;;;3.60;;
5904;SDS011;2978;42.012;24.880;2023-02-19T09:45:57;8.00;;;4.27;;
5904;SDS011;2978;42.012;24.880;2023-02-19T09:48:31;6.03;;;3.90;;
5904;SDS011;2978;42.012;24.880;2023-02-19T09:50:57;6.13;;;3.70;;
5904;SDS011;2978;42.012;24.880;2023-02-19T09:53:26;8.20;;;3.57;;
5904;SDS011;2978;42.012;24.880;2023-02-19T09:55:56;6.23;;;3.10;;
5904;SDS011;2978;42.012;24.880;2023-02-19T09:58:29;6.67;;;3.80;;
5904;SDS011;2978;42.012;24.880;2023-02-19T10:00:59;5.80;;;3.10;;
5904;SDS011;2978;42.012;24.880;2023-02-19T10:03:26;5.60;;;3.37;;
5904;SDS011;2978;42.012;24.880;2023-02-19T10:06:07;12.00;;;4.00;;
5904;SDS011;2978;42.012;24.880;2023-02-19T10:08:44;9.73;;;3.20;;
5904;SDS011;2978;42.012;24.880;2023-02-19T10:11:11;5.40;;;2.93;;
5904;SDS011;2978;42.012;24.880;2023-02-19T10:13:41;4.57;;;3.30;;
5904;SDS011;2978;42.012;24.880;2023-02-19T10:16:16;14.23;;;3.60;;
5904;SDS011;2978;42.012;24.880;2023-02-19T10:18:45;6.60;;;3.50;;
5904;SDS011;2978;42.012;24.880;2023-02-19T10:21:14;6.20;;;3.63;;
5904;SDS011;2978;42.012;24.880;2023-02-19T10:23:43;6.57;;;3.87;;
5904;SDS011;2978;42.012;24.880;2023-02-19T10:26:10;9.07;;;3.90;;
5904;SDS011;2978;42.012;24.880;2023-02-19T10:28:36;8.33;;;3.80;;
5904;SDS011;2978;42.012;24.880;2023-02-19T10:31:03;5.43;;;4.17;;
5904;SDS011;2978;42.012;24.880;2023-02-19T10:33:35;8.70;;;4.10;;
5904;SDS011;2978;42.012;24.880;2023-02-19T10:36:21;6.43;;;3.83;;
5904;SDS011;2978;42.012;24.880;2023-02-19T10:39:00;10.80;;;3.93;;
5904;SDS011;2978;42.012;24.880;2023-02-19T10:41:49;6.90;;;3.80;;
5904;SDS011;2978;42.012;24.880;2023-02-19T10:44:23;9.57;;;4.13;;
5904;SDS011;2978;42.012;24.880;2023-02-19T10:46:51;10.57;;;3.70;;
5904;SDS011;2978;42.012;24.880;2023-02-19T10:49:25;6.50;;;3.30;;
5904;SDS011;2978;42.012;24.880;2023-02-19T10:54:51;5.33;;;3.50;;
5904;SDS011;2978;42.012;24.880;2023-02-19T10:57:23;6.47;;;4.13;;
5904;SDS011;2978;42.012;24.880;2023-02-19T11:02:25;5.13;;;3.90;;
5904;SDS011;2978;42.012;24.880;2023-02-19T11:07:53;7.13;;;4.37;;
5904;SDS011;2978;42.012;24.880;2023-02-19T11:13:03;14.07;;;6.17;;
5904;SDS011;2978;42.012;24.880;2023-02-19T11:15:34;13.03;;;5.20;;
5904;SDS011;2978;42.012;24.880;2023-02-19T11:18:06;5.93;;;3.90;;
5904;SDS011;2978;42.012;24.880;2023-02-19T11:21:04;7.23;;;4.20;;
5904;SDS011;2978;42.012;24.880;2023-02-19T11:23:33;4.50;;;3.63;;
5904;SDS011;2978;42.012;24.880;2023-02-19T11:26:04;9.83;;;4.93;;
5904;SDS011;2978;42.012;24.880;2023-02-19T11:28:40;11.00;;;6.60;;
5904;SDS011;2978;42.012;24.880;2023-02-19T11:36:29;7.20;;;4.00;;
5904;SDS011;2978;42.012;24.880;2023-02-19T11:39:20;9.07;;;5.13;;
5904;SDS011;2978;42.012;24.880;2023-02-19T11:42:07;17.87;;;8.27;;
5904;SDS011;2978;42.012;24.880;2023-02-19T12:12:47;4.80;;;3.50;;
5904;SDS011;2978;42.012;24.880;2023-02-19T12:35:18;5.70;;;4.30;;
5904;SDS011;2978;42.012;24.880;2023-02-19T12:43:25;5.90;;;3.60;;
5904;SDS011;2978;42.012;24.880;2023-02-19T12:46:05;8.80;;;4.73;;
5904;SDS011;2978;42.012;24.880;2023-02-19T12:48:55;7.10;;;3.73;;
5904;SDS011;2978;42.012;24.880;2023-02-19T12:51:37;7.37;;;4.10;;
5904;SDS011;2978;42.012;24.880;2023-02-19T12:54:18;6.40;;;3.57;;
5904;SDS011;2978;42.012;24.880;2023-02-19T12:57:01;6.80;;;3.60;;
5904;SDS011;2978;42.012;24.880;2023-02-19T12:59:46;6.20;;;3.80;;
5904;SDS011;2978;42.012;24.880;2023-02-19T13:05:39;7.57;;;5.67;;
5904;SDS011;2978;42.012;24.880;2023-02-19T13:10:58;12.10;;;7.97;;
5904;SDS011;2978;42.012;24.880;2023-02-19T13:15:57;8.30;;;4.97;;
5904;SDS011;2978;42.012;24.880;2023-02-19T13:18:31;7.70;;;4.23;;
5904;SDS011;2978;42.012;24.880;2023-02-19T13:21:08;9.53;;;3.57;;
5904;SDS011;2978;42.012;24.880;2023-02-19T13:23:35;4.37;;;3.20;;
5904;SDS011;2978;42.012;24.880;2023-02-19T13:29:51;12.60;;;3.40;;
5904;SDS011;2978;42.012;24.880;2023-02-19T13:37:49;4.33;;;3.40;;
5904;SDS011;2978;42.012;24.880;2023-02-19T13:42:55;12.33;;;6.53;;
5904;SDS011;2978;42.012;24.880;2023-02-19T13:45:44;7.50;;;5.40;;
5904;SDS011;2978;42.012;24.880;2023-02-19T13:48:14;8.90;;;4.63;;
5904;SDS011;2978;42.012;24.880;2023-02-19T13:50:49;19.73;;;9.63;;
5904;SDS011;2978;42.012;24.880;2023-02-19T14:12:01;7.03;;;5.20;;
5904;SDS011;2978;42.012;24.880;2023-02-19T14:17:23;9.67;;;5.40;;
5904;SDS011;2978;42.012;24.880;2023-02-19T14:30:40;5.97;;;4.17;;
5904;SDS011;2978;42.012;24.880;2023-02-19T14:33:24;10.87;;;5.17;;
5904;SDS011;2978;42.012;24.880;2023-02-19T14:36:04;10.03;;;4.30;;
5904;SDS011;2978;42.012;24.880;2023-02-19T14:38:32;12.00;;;4.03;;
5904;SDS011;2978;42.012;24.880;2023-02-19T14:41:02;10.57;;;5.47;;
5904;SDS011;2978;42.012;24.880;2023-02-19T14:43:28;10.10;;;5.53;;
5904;SDS011;2978;42.012;24.880;2023-02-19T14:45:58;8.00;;;5.20;;
5904;SDS011;2978;42.012;24.880;2023-02-19T14:48:32;6.20;;;4.30;;
5904;SDS011;2978;42.012;24.880;2023-02-19T14:51:03;8.20;;;5.40;;
5904;SDS011;2978;42.012;24.880;2023-02-19T14:53:34;10.33;;;5.37;;
5904;SDS011;2978;42.012;24.880;2023-02-19T14:56:03;8.50;;;5.57;;
5904;SDS011;2978;42.012;24.880;2023-02-19T14:58:31;9.50;;;5.97;;
5904;SDS011;2978;42.012;24.880;2023-02-19T15:00:57;12.07;;;6.60;;
5904;SDS011;2978;42.012;24.880;2023-02-19T15:06:03;13.03;;;6.50;;
5904;SDS011;2978;42.012;24.880;2023-02-19T15:08:36;12.80;;;7.70;;
5904;SDS011;2978;42.012;24.880;2023-02-19T15:11:07;28.30;;;7.13;;
5904;SDS011;2978;42.012;24.880;2023-02-19T15:13:36;15.93;;;6.70;;
5904;SDS011;2978;42.012;24.880;2023-02-19T15:16:02;17.03;;;6.37;;
5904;SDS011;2978;42.012;24.880;2023-02-19T15:18:28;12.87;;;7.00;;
5904;SDS011;2978;42.012;24.880;2023-02-19T15:20:58;15.07;;;7.43;;
5904;SDS011;2978;42.012;24.880;2023-02-19T15:23:26;19.13;;;7.13;;
5904;SDS011;2978;42.012;24.880;2023-02-19T15:25:54;18.60;;;8.13;;
5904;SDS011;2978;42.012;24.880;2023-02-19T15:30:49;21.63;;;8.47;;
5904;SDS011;2978;42.012;24.880;2023-02-19T15:33:21;12.53;;;9.07;;
5904;SDS011;2978;42.012;24.880;2023-02-19T15:35:50;15.43;;;7.50;;
5904;SDS011;2978;42.012;24.880;2023-02-19T15:38:19;10.87;;;6.10;;
5904;SDS011;2978;42.012;24.880;2023-02-19T15:40:45;17.17;;;7.37;;
5904;SDS011;2978;42.012;24.880;2023-02-19T15:43:18;13.90;;;6.60;;
5904;SDS011;2978;42.012;24.880;2023-02-19T15:45:48;8.63;;;5.20;;
5904;SDS011;2978;42.012;24.880;2023-02-19T15:48:20;8.90;;;5.03;;
5904;SDS011;2978;42.012;24.880;2023-02-19T15:50:51;8.53;;;5.60;;
5904;SDS011;2978;42.012;24.880;2023-02-19T15:53:24;9.17;;;4.83;;
5904;SDS011;2978;42.012;24.880;2023-02-19T15:56:11;7.97;;;5.13;;
5904;SDS011;2978;42.012;24.880;2023-02-19T15:58:52;13.37;;;5.30;;
5904;SDS011;2978;42.012;24.880;2023-02-19T16:01:25;9.43;;;5.00;;
5904;SDS011;2978;42.012;24.880;2023-02-19T16:03:55;12.93;;;5.40;;
5904;SDS011;2978;42.012;24.880;2023-02-19T16:06:22;13.67;;;5.50;;
5904;SDS011;2978;42.012;24.880;2023-02-19T16:14:15;18.47;;;7.60;;
5904;SDS011;2978;42.012;24.880;2023-02-19T16:16:43;11.50;;;6.90;;
5904;SDS011;2978;42.012;24.880;2023-02-19T16:19:11;18.43;;;8.47;;
5904;SDS011;2978;42.012;24.880;2023-02-19T16:21:37;21.30;;;9.37;;
5904;SDS011;2978;42.012;24.880;2023-02-19T16:24:04;18.63;;;8.70;;
5904;SDS011;2978;42.012;24.880;2023-02-19T16:26:41;10.80;;;6.40;;
5904;SDS011;2978;42.012;24.880;2023-02-19T16:31:53;8.20;;;5.50;;
5904;SDS011;2978;42.012;24.880;2023-02-19T16:34:31;17.00;;;6.20;;
5904;SDS011;2978;42.012;24.880;2023-02-19T16:42:32;7.03;;;3.90;;
5904;SDS011;2978;42.012;24.880;2023-02-19T16:44:58;7.30;;;4.10;;
5904;SDS011;2978;42.012;24.880;2023-02-19T16:47:27;11.63;;;5.87;;
5904;SDS011;2978;42.012;24.880;2023-02-19T16:50:00;7.90;;;4.53;;
5904;SDS011;2978;42.012;24.880;2023-02-19T16:52:28;15.00;;;9.87;;
5904;SDS011;2978;42.012;24.880;2023-02-19T16:54:53;11.10;;;5.93;;
5904;SDS011;2978;42.012;24.880;2023-02-19T16:57:19;5.80;;;3.60;;
5904;SDS011;2978;42.012;24.880;2023-02-19T16:59:45;6.53;;;3.90;;
5904;SDS011;2978;42.012;24.880;2023-02-19T17:02:14;6.00;;;3.13;;
5904;SDS011;2978;42.012;24.880;2023-02-19T17:04:43;10.90;;;3.13;;
5904;SDS011;2978;42.012;24.880;2023-02-19T17:07:12;12.57;;;4.57;;
5904;SDS011;2978;42.012;24.880;2023-02-19T17:09:39;6.60;;;4.40;;
5904;SDS011;2978;42.012;24.880;2023-02-19T17:12:11;6.93;;;4.73;;
5904;SDS011;2978;42.012;24.880;2023-02-19T17:14:39;9.27;;;4.93;;
5904;SDS011;2978;42.012;24.880;2023-02-19T17:17:05;7.30;;;5.00;;
5904;SDS011;2978;42.012;24.880;2023-02-19T17:19:31;6.40;;;4.27;;
5904;SDS011;2978;42.012;24.880;2023-02-19T17:21:56;11.70;;;4.70;;
5904;SDS011;2978;42.012;24.880;2023-02-19T17:24:22;9.30;;;5.33;;
5904;SDS011;2978;42.012;24.880;2023-02-19T17:26:48;13.93;;;5.90;;
5904;SDS011;2978;42.012;24.880;2023-02-19T17:29:14;9.13;;;5.83;;
5904;SDS011;2978;42.012;24.880;2023-02-19T17:31:42;11.27;;;4.53;;
5904;SDS011;2978;42.012;24.880;2023-02-19T17:34:08;25.33;;;5.30;;
5904;SDS011;2978;42.012;24.880;2023-02-19T17:36:33;10.40;;;5.07;;
5904;SDS011;2978;42.012;24.880;2023-02-19T17:39:00;8.13;;;4.60;;
5904;SDS011;2978;42.012;24.880;2023-02-19T17:41:27;11.53;;;5.73;;
5904;SDS011;2978;42.012;24.880;2023-02-19T17:43:53;9.37;;;4.83;;
5904;SDS011;2978;42.012;24.880;2023-02-19T17:46:22;8.60;;;5.43;;
5904;SDS011;2978;42.012;24.880;2023-02-19T17:48:49;17.10;;;6.10;;
5904;SDS011;2978;42.012;24.880;2023-02-19T17:51:15;9.97;;;5.33;;
5904;SDS011;2978;42.012;24.880;2023-02-19T17:53:41;9.27;;;4.97;;
5904;SDS011;2978;42.012;24.880;2023-02-19T17:56:06;6.57;;;4.70;;
5904;SDS011;2978;42.012;24.880;2023-02-19T17:58:32;8.33;;;4.80;;
5904;SDS011;2978;42.012;24.880;2023-02-19T18:00:57;8.53;;;4.97;;
5904;SDS011;2978;42.012;24.880;2023-02-19T18:03:23;7.10;;;4.20;;